Hartland, Michigan
Current Conditions -  °F | °C
As of 3:35 AM on Monday 22 Dec 2014 (Local Time) from KOZW Reporting Station
Haze Haze  
Wind Chill: 18°   Ceiling: Unl
Heat Index: 26°   Visibility: 4mi
Dew Point: 25°   Wind: 8mph
Humidity: 94%   Direction: 140°SE
Pressure: 30.1"   Gusts: NA
Location:  42.66°N, 83.75°W
Report Text: KOZW 220835Z AUTO 14007KT 4SM BR CLR M03/M04 A3010 RMK AO2 T10321040
Loading
Personal Weather Stations






























Interactive Weather Map New forecast layout! Learn more

10-Day Weather Forecast

Advertisements
Track Severe Weather on mobile